Time;durP1;ratioP1;P1;durP2;ratioP2;P2;SDS_P1;SDS_P2;PMS_P1;PMS_P2;Temp;Humidity;BMP_temperature;BMP_pressure;BME280_temperature;BME280_humidity;BME280_pressure;Samples;Min_cycle;Max_cycle;Signal;HPM_P1;HPM_P2
2023/03/06 00:01:39;;;;;;;19.38;12.57;;;;;;;5.70;100.00;98472.69;4975447;28;20039;-83
2023/03/06 00:04:07;;;;;;;21.02;13.27;;;;;;;5.67;100.00;98480.03;4958417;28;20094;-85
2023/03/06 00:06:59;;;;;;;23.92;13.88;;;;;;;5.65;100.00;98479.41;4958672;28;20106;-86
2023/03/06 00:09:24;;;;;;;22.63;13.38;;;;;;;5.62;100.00;98479.75;4973811;28;20043;-85
2023/03/06 00:11:49;;;;;;;23.08;13.35;;;;;;;5.85;100.00;98470.09;4975705;28;20042;-85
2023/03/06 00:14:15;;;;;;;21.58;13.45;;;;;;;5.69;100.00;98465.88;4975358;28;20042;-85
2023/03/06 00:16:41;;;;;;;22.10;12.48;;;;;;;5.66;100.00;98465.41;4958894;28;20050;-86
2023/03/06 00:19:09;;;;;;;20.75;12.57;;;;;;;5.94;100.00;98462.22;4958441;28;20125;-85
2023/03/06 00:21:34;;;;;;;25.98;13.35;;;;;;;5.95;100.00;98450.81;4975830;28;20039;-84
2023/03/06 00:24:00;;;;;;;18.60;12.02;;;;;;;5.96;100.00;98453.22;4958197;28;20046;-84
2023/03/06 00:26:25;;;;;;;20.75;11.90;;;;;;;5.74;100.00;98436.69;4978477;28;20109;-85
2023/03/06 00:28:51;;;;;;;17.95;11.20;;;;;;;5.73;100.00;98435.06;4978355;28;20073;-84
2023/03/06 00:31:16;;;;;;;18.48;10.98;;;;;;;5.60;100.00;98429.66;4978849;28;20049;-83
2023/03/06 00:33:42;;;;;;;21.23;10.77;;;;;;;5.81;100.00;98434.97;4962166;28;20047;-84
2023/03/06 00:36:08;;;;;;;18.65;11.07;;;;;;;5.83;100.00;98425.19;4979304;28;20401;-83
2023/03/06 00:38:35;;;;;;;23.35;11.80;;;;;;;6.03;100.00;98435.09;4961753;28;20046;-85
2023/03/06 00:41:11;;;;;;;19.98;11.27;;;;;;;6.13;100.00;98427.03;4979844;28;20053;-84
2023/03/06 00:43:37;;;;;;;22.13;11.63;;;;;;;6.29;100.00;98426.03;4977339;28;20080;-84
2023/03/06 00:46:04;;;;;;;21.17;11.18;;;;;;;6.26;100.00;98418.56;4979014;28;20035;-83
2023/03/06 00:48:30;;;;;;;19.65;11.75;;;;;;;6.21;100.00;98419.13;4961307;28;20035;-83
2023/03/06 00:50:56;;;;;;;20.88;11.00;;;;;;;5.94;100.00;98415.34;4978917;28;20043;-84
2023/03/06 00:53:21;;;;;;;20.65;10.73;;;;;;;6.01;100.00;98413.63;4979057;28;20185;-85
2023/03/06 00:55:49;;;;;;;21.13;12.10;;;;;;;6.19;100.00;98405.47;4978942;28;20497;-84
2023/03/06 00:58:14;;;;;;;21.05;12.18;;;;;;;6.16;100.00;98408.41;4979791;28;20130;-85
2023/03/06 01:00:40;;;;;;;20.52;12.80;;;;;;;6.20;100.00;98408.88;4980405;28;20077;-85
2023/03/06 01:03:05;;;;;;;24.00;12.43;;;;;;;5.93;100.00;98406.69;4978374;28;20039;-86
2023/03/06 01:05:34;;;;;;;26.90;12.48;;;;;;;5.91;100.00;98397.47;4977790;28;20058;-84
2023/03/06 01:08:00;;;;;;;26.70;13.40;;;;;;;5.83;100.00;98393.16;4976786;28;20496;-84
2023/03/06 01:10:28;;;;;;;28.45;13.80;;;;;;;6.13;100.00;98386.16;4960533;28;20114;-85
2023/03/06 01:12:54;;;;;;;23.85;13.48;;;;;;;6.01;100.00;98379.78;4978277;28;20031;-85
2023/03/06 01:15:20;;;;;;;24.35;13.30;;;;;;;6.12;100.00;98386.31;4977785;28;20053;-85
2023/03/06 01:17:47;;;;;;;23.83;13.70;;;;;;;6.21;100.00;98380.03;4977704;28;20050;-85
2023/03/06 01:20:17;;;;;;;24.42;13.45;;;;;;;6.40;100.00;98372.63;4978040;28;20097;-84
2023/03/06 01:22:43;;;;;;;28.35;15.02;;;;;;;6.33;100.00;98367.34;4977733;28;20504;-87
2023/03/06 01:25:09;;;;;;;30.17;15.77;;;;;;;6.42;100.00;98361.00;4978178;28;20038;-84
2023/03/06 01:27:35;;;;;;;27.23;13.70;;;;;;;6.49;100.00;98362.91;4977761;28;20038;-85
2023/03/06 01:30:01;;;;;;;24.50;13.25;;;;;;;6.35;100.00;98361.91;4978226;28;20106;-86
2023/03/06 01:32:26;;;;;;;26.50;14.85;;;;;;;6.34;100.00;98366.34;4978678;28;20050;-84
2023/03/06 01:34:52;;;;;;;28.58;15.80;;;;;;;6.10;100.00;98352.66;4978449;28;20038;-86
2023/03/06 01:37:18;;;;;;;35.80;18.50;;;;;;;6.24;100.00;98350.16;4960161;28;20485;-85
2023/03/06 01:39:43;;;;;;;38.20;18.08;;;;;;;6.34;100.00;98347.28;4978509;28;20073;-85
2023/03/06 01:42:09;;;;;;;39.58;20.08;;;;;;;6.25;100.00;98343.97;4961380;28;20041;-85
2023/03/06 01:44:34;;;;;;;41.53;20.13;;;;;;;5.78;100.00;98335.56;4977133;28;20354;-85
2023/03/06 01:47:01;;;;;;;38.05;18.90;;;;;;;5.78;100.00;98331.19;4976942;28;20038;-85
2023/03/06 01:49:39;;;;;;;36.10;17.55;;;;;;;5.54;100.00;98327.88;4960357;28;20041;-85
2023/03/06 01:52:17;;;;;;;33.28;16.00;;;;;;;5.26;100.00;98320.66;4977789;28;20046;-85
2023/03/06 01:54:48;;;;;;;28.17;14.88;;;;;;;5.09;100.00;98324.38;4977058;28;20394;-84
2023/03/06 01:57:20;;;;;;;24.40;12.85;;;;;;;5.46;100.00;98314.91;4977494;28;20043;-85
2023/03/06 01:59:51;;;;;;;22.35;12.50;;;;;;;5.43;100.00;98307.47;4977032;28;20042;-85
2023/03/06 02:02:18;;;;;;;21.30;11.82;;;;;;;5.37;100.00;98305.59;4977541;28;20168;-84
2023/03/06 02:04:45;;;;;;;20.20;11.40;;;;;;;5.83;100.00;98300.19;4977603;28;20047;-84
2023/03/06 02:07:14;;;;;;;22.42;13.45;;;;;;;5.76;100.00;98290.66;4960643;28;20050;-84
2023/03/06 02:09:40;;;;;;;26.83;14.48;;;;;;;5.55;100.00;98293.03;4977817;28;20062;-85
2023/03/06 02:12:10;;;;;;;25.15;14.32;;;;;;;5.54;100.00;98288.81;4977075;28;20043;-84
2023/03/06 02:14:36;;;;;;;26.63;12.73;;;;;;;5.27;100.00;98283.22;4977682;28;20050;-83
2023/03/06 02:17:03;;;;;;;17.58;10.10;;;;;;;5.39;100.00;98283.59;4977140;28;20058;-84
2023/03/06 02:19:34;;;;;;;18.70;10.07;;;;;;;5.54;100.00;98275.81;4962291;28;20512;-86
2023/03/06 02:22:00;;;;;;;17.77;9.95;;;;;;;5.54;100.00;98273.19;4981406;28;20101;-86
2023/03/06 02:24:39;;;;;;;21.35;10.15;;;;;;;5.81;100.00;98265.69;4959663;28;20050;-85
2023/03/06 02:27:07;;;;;;;17.45;9.60;;;;;;;5.89;100.00;98254.38;4957789;28;20046;-87
2023/03/06 02:29:32;;;;;;;17.35;8.82;;;;;;;5.68;100.00;98255.13;4959411;28;20046;-85
2023/03/06 02:31:57;;;;;;;17.67;8.73;;;;;;;5.91;100.00;98256.81;4976884;28;20050;-85
2023/03/06 02:34:23;;;;;;;15.00;8.52;;;;;;;6.05;100.00;98249.97;4976590;28;20083;-83
2023/03/06 02:36:52;;;;;;;17.20;10.18;;;;;;;6.18;100.00;98238.88;4975780;28;20035;-84
2023/03/06 02:39:22;;;;;;;19.42;10.57;;;;;;;6.27;100.00;98240.34;4975553;28;20058;-85
2023/03/06 02:41:48;;;;;;;19.20;10.65;;;;;;;6.20;100.00;98226.44;4974584;28;20039;-84
2023/03/06 02:44:13;;;;;;;19.35;10.85;;;;;;;6.24;100.00;98228.50;4976891;28;20043;-83
2023/03/06 02:46:39;;;;;;;21.83;11.65;;;;;;;6.16;100.00;98214.78;4976179;28;20134;-82
2023/03/06 02:49:04;;;;;;;20.90;11.65;;;;;;;6.12;100.00;98227.38;4975929;28;20066;-83
2023/03/06 02:51:30;;;;;;;20.08;10.75;;;;;;;6.18;100.00;98215.41;4976007;28;20035;-83
2023/03/06 02:53:55;;;;;;;19.92;11.32;;;;;;;6.09;100.00;98202.53;4958784;28;20042;-83
2023/03/06 02:56:24;;;;;;;16.92;10.15;;;;;;;6.19;100.00;98198.78;4976613;28;20054;-83
2023/03/06 02:58:50;;;;;;;19.63;11.32;;;;;;;6.26;100.00;98202.25;4976059;28;20043;-83
2023/03/06 03:01:16;;;;;;;18.23;10.15;;;;;;;6.36;100.00;98205.34;4976681;28;20516;-82
2023/03/06 03:03:42;;;;;;;17.27;8.98;;;;;;;6.35;100.00;98202.91;4975822;28;20038;-82
2023/03/06 03:06:08;;;;;;;18.33;9.27;;;;;;;6.22;100.00;98193.19;4958978;28;20109;-83
2023/03/06 03:08:34;;;;;;;18.00;9.55;;;;;;;6.05;100.00;98183.00;4954976;28;20508;-84
2023/03/06 03:11:00;;;;;;;16.10;9.10;;;;;;;6.22;100.00;98178.38;4975874;28;20050;-83
2023/03/06 03:13:25;;;;;;;18.60;9.95;;;;;;;6.29;100.00;98165.41;4958511;28;20030;-83
2023/03/06 03:16:06;;;;;;;17.42;9.73;;;;;;;6.52;100.00;98164.38;4959535;28;20034;-85
2023/03/06 03:18:32;;;;;;;17.58;10.07;;;;;;;6.32;100.00;98161.59;4976810;28;20030;-83
2023/03/06 03:20:58;;;;;;;17.90;10.10;;;;;;;6.38;100.00;98150.41;4975592;28;20129;-86
2023/03/06 03:23:24;;;;;;;19.42;10.40;;;;;;;6.38;100.00;98148.63;4959079;28;20085;-83
2023/03/06 03:25:50;;;;;;;21.10;11.65;;;;;;;6.47;100.00;98133.66;4976982;28;20042;-85
2023/03/06 03:28:17;;;;;;;25.45;13.27;;;;;;;6.24;100.00;98136.47;4959229;28;20059;-83
2023/03/06 03:30:43;;;;;;;28.15;13.85;;;;;;;6.04;100.00;98131.91;4976240;28;20078;-86
2023/03/06 03:33:09;;;;;;;25.17;13.18;;;;;;;6.11;100.00;98119.75;4959222;28;20454;-85
2023/03/06 03:35:35;;;;;;;28.50;13.93;;;;;;;6.19;100.00;98115.41;4959685;28;20054;-85
2023/03/06 03:38:01;;;;;;;26.88;13.52;;;;;;;6.16;100.00;98116.56;4959458;28;20049;-85
2023/03/06 03:40:26;;;;;;;28.08;14.73;;;;;;;6.17;100.00;98117.38;4976473;28;20497;-83
2023/03/06 03:42:52;;;;;;;31.58;15.93;;;;;;;6.25;100.00;98114.63;4976152;28;20042;-83
2023/03/06 03:45:17;;;;;;;29.48;14.70;;;;;;;6.27;100.00;98104.81;4976083;28;20368;-85
2023/03/06 03:47:43;;;;;;;30.85;15.77;;;;;;;6.18;100.00;98105.97;4975872;28;20047;-84
2023/03/06 03:50:09;;;;;;;30.67;15.45;;;;;;;6.02;100.00;98110.44;4975787;28;20065;-85
2023/03/06 03:52:36;;;;;;;32.30;16.48;;;;;;;6.29;100.00;98105.47;4975241;28;20131;-86
2023/03/06 03:55:03;;;;;;;32.72;16.42;;;;;;;6.00;100.00;98118.44;4974955;28;20493;-85
2023/03/06 03:57:29;;;;;;;30.48;15.40;;;;;;;6.01;100.00;98108.84;4974309;28;21263;-85
2023/03/06 03:59:54;;;;;;;35.58;16.80;;;;;;;5.97;100.00;98107.56;4959270;28;20046;-84
2023/03/06 04:02:24;;;;;;;29.40;15.52;;;;;;;6.14;100.00;98095.94;4979626;28;20046;-84
2023/03/06 04:04:49;;;;;;;35.30;16.77;;;;;;;6.23;100.00;98091.38;4979692;28;20093;-85
2023/03/06 04:07:15;;;;;;;29.48;15.32;;;;;;;6.20;100.00;98083.13;4962247;28;20046;-85
2023/03/06 04:09:40;;;;;;;29.20;15.13;;;;;;;6.18;100.00;98077.31;4979571;28;20053;-85
2023/03/06 04:12:06;;;;;;;28.90;15.57;;;;;;;5.86;100.00;98080.25;4979807;28;20039;-85
2023/03/06 04:14:32;;;;;;;26.85;14.23;;;;;;;5.82;100.00;98085.00;4962581;28;20090;-85
2023/03/06 04:16:58;;;;;;;25.65;14.05;;;;;;;6.03;100.00;98072.97;4980081;28;20039;-84
2023/03/06 04:19:23;;;;;;;23.02;12.30;;;;;;;6.21;100.00;98071.72;4962126;28;20045;-85
2023/03/06 04:21:49;;;;;;;21.75;11.73;;;;;;;6.13;100.00;98070.88;4979800;28;20035;-84
2023/03/06 04:24:14;;;;;;;19.98;11.15;;;;;;;6.11;100.00;98059.84;4979515;28;20038;-83
2023/03/06 04:26:40;;;;;;;19.35;10.50;;;;;;;6.07;100.00;98066.41;4979251;28;20043;-84
2023/03/06 04:29:05;;;;;;;16.42;9.55;;;;;;;6.00;100.00;98045.50;4979483;28;20034;-83
2023/03/06 04:31:31;;;;;;;21.70;11.05;;;;;;;5.50;100.00;98060.28;4979402;28;20062;-84
2023/03/06 04:33:57;;;;;;;25.77;13.57;;;;;;;5.48;100.00;98052.66;4978061;28;20437;-83
2023/03/06 04:36:31;;;;;;;34.22;16.48;;;;;;;5.81;100.00;98053.97;4979006;28;20129;-84
2023/03/06 04:38:57;;;;;;;32.25;16.27;;;;;;;5.80;100.00;98060.97;4979417;28;20523;-84
2023/03/06 04:41:23;;;;;;;34.58;17.90;;;;;;;5.55;100.00;98050.13;4962261;28;20039;-83
2023/03/06 04:43:49;;;;;;;38.25;17.90;;;;;;;5.64;100.00;98053.41;4979515;28;20540;-84
2023/03/06 04:46:14;;;;;;;41.72;18.85;;;;;;;5.47;100.00;98043.22;4979171;28;20031;-84
2023/03/06 04:48:40;;;;;;;42.50;19.92;;;;;;;5.75;100.00;98037.28;4978954;28;20408;-85
2023/03/06 04:51:05;;;;;;;45.33;22.25;;;;;;;5.42;100.00;98035.19;4978786;28;20045;-83
2023/03/06 04:53:31;;;;;;;47.70;22.02;;;;;;;5.84;100.00;98028.31;4978747;28;20038;-84
2023/03/06 04:55:57;;;;;;;52.38;22.75;;;;;;;5.78;100.00;98018.69;4961524;28;20078;-84
2023/03/06 04:58:24;;;;;;;52.70;24.40;;;;;;;5.78;100.00;98020.47;4961068;28;20035;-84
2023/03/06 05:00:49;;;;;;;50.55;22.45;;;;;;;5.53;100.00;98024.28;4978083;28;20039;-84
2023/03/06 05:03:15;;;;;;;48.00;21.73;;;;;;;5.44;100.00;98014.97;4961292;28;20065;-84
2023/03/06 05:05:41;;;;;;;45.63;22.10;;;;;;;5.51;100.00;98015.03;4961660;28;20109;-84
2023/03/06 05:08:09;;;;;;;35.42;16.83;;;;;;;5.22;100.00;98016.78;4978554;28;20050;-82
2023/03/06 05:10:35;;;;;;;28.00;14.02;;;;;;;5.28;100.00;98016.84;4974394;28;20039;-84
2023/03/06 05:13:00;;;;;;;31.90;15.80;;;;;;;5.61;100.00;97999.09;4977720;28;20098;-83
2023/03/06 05:15:26;;;;;;;25.05;13.25;;;;;;;5.49;100.00;98002.19;4977796;28;20117;-83
2023/03/06 05:17:51;;;;;;;22.67;12.48;;;;;;;5.22;100.00;97996.78;4962080;28;20047;-83
2023/03/06 05:20:17;;;;;;;22.08;11.40;;;;;;;5.27;100.00;98004.03;4978517;28;20039;-83
2023/03/06 05:22:43;;;;;;;20.98;10.80;;;;;;;5.58;100.00;97998.50;4978702;28;20054;-84
2023/03/06 05:25:12;;;;;;;19.23;10.32;;;;;;;5.33;100.00;97995.47;4961231;28;20038;-84
2023/03/06 05:27:38;;;;;;;18.40;9.75;;;;;;;5.41;100.00;97997.97;4978147;28;20046;-83
2023/03/06 05:30:04;;;;;;;16.70;8.75;;;;;;;5.31;100.00;97999.25;4961099;28;20061;-83
2023/03/06 05:32:30;;;;;;;14.25;8.13;;;;;;;5.23;100.00;98000.19;4977995;28;20078;-82
2023/03/06 05:34:55;;;;;;;19.17;9.70;;;;;;;5.48;100.00;97995.38;4978612;28;20050;-84
2023/03/06 05:37:24;;;;;;;15.52;8.95;;;;;;;5.51;100.00;97984.63;4978570;28;20121;-84
2023/03/06 05:39:50;;;;;;;14.05;8.65;;;;;;;5.70;100.00;97982.38;4961404;28;20057;-82
2023/03/06 05:42:15;;;;;;;15.52;8.32;;;;;;;5.67;100.00;97988.75;4978921;28;20482;-83
2023/03/06 05:44:41;;;;;;;14.88;7.75;;;;;;;5.47;100.00;97977.38;4961562;28;20047;-84
2023/03/06 05:47:07;;;;;;;13.50;8.02;;;;;;;5.61;100.00;97978.28;4961854;28;20501;-84
2023/03/06 05:49:34;;;;;;;12.77;7.68;;;;;;;5.94;100.00;97977.72;4961084;28;20078;-83
2023/03/06 05:52:05;;;;;;;12.30;7.82;;;;;;;6.08;100.00;97976.81;4959907;28;20121;-85
2023/03/06 05:54:35;;;;;;;12.77;7.88;;;;;;;6.17;100.00;97979.28;4978611;28;20130;-84
2023/03/06 05:57:01;;;;;;;11.40;7.20;;;;;;;6.25;100.00;97968.69;4978360;28;20046;-83
2023/03/06 05:59:27;;;;;;;13.35;7.90;;;;;;;6.27;100.00;97966.69;4961280;28;20065;-85
2023/03/06 06:01:56;;;;;;;9.63;5.90;;;;;;;6.48;100.00;97951.94;4978751;28;20038;-84
2023/03/06 06:04:23;;;;;;;9.77;5.60;;;;;;;6.47;100.00;97961.59;4978575;28;20050;-83
2023/03/06 06:06:57;;;;;;;9.73;5.53;;;;;;;6.64;100.00;97956.81;4978690;28;20057;-85
2023/03/06 06:09:24;;;;;;;6.78;4.20;;;;;;;6.20;100.00;97964.09;4978611;28;20043;-84
2023/03/06 06:11:54;;;;;;;5.93;3.72;;;;;;;6.36;100.00;97955.13;4978610;28;20448;-84
2023/03/06 06:14:20;;;;;;;6.57;4.30;;;;;;;6.35;100.00;97953.53;4978862;28;20043;-84
2023/03/06 06:16:46;;;;;;;7.18;4.47;;;;;;;6.20;100.00;97960.66;4961158;28;20489;-85
2023/03/06 06:19:17;;;;;;;7.45;4.70;;;;;;;6.03;100.00;97950.53;4961079;28;20109;-85
2023/03/06 06:21:53;;;;;;;7.65;4.88;;;;;;;6.06;100.00;97949.38;4978271;28;20031;-84
2023/03/06 06:24:24;;;;;;;8.80;4.82;;;;;;;6.16;100.00;97949.03;4961792;28;20038;-83
2023/03/06 06:26:51;;;;;;;9.77;5.25;;;;;;;6.21;100.00;97949.25;4977800;28;20482;-83
2023/03/06 06:29:17;;;;;;;8.65;4.60;;;;;;;6.27;100.00;97930.22;4978105;28;20129;-84
2023/03/06 06:31:43;;;;;;;9.55;5.15;;;;;;;5.94;100.00;97931.63;4977742;28;20078;-84
2023/03/06 06:34:09;;;;;;;9.13;4.72;;;;;;;6.07;100.00;97928.31;4981627;28;20043;-85
2023/03/06 06:36:36;;;;;;;9.23;4.85;;;;;;;6.24;100.00;97920.19;4960919;28;20069;-86
2023/03/06 06:39:02;;;;;;;10.52;5.22;;;;;;;6.31;100.00;97915.81;4980001;28;20054;-85
2023/03/06 06:41:28;;;;;;;7.78;4.93;;;;;;;6.19;100.00;97926.00;4960411;28;20558;-83
2023/03/06 06:43:53;;;;;;;8.57;4.88;;;;;;;6.25;100.00;97916.56;4962090;28;20401;-84
2023/03/06 06:46:19;;;;;;;8.27;4.88;;;;;;;6.44;100.00;97915.06;4980988;28;20035;-85
2023/03/06 06:48:48;;;;;;;8.15;4.82;;;;;;;6.44;100.00;97917.66;4980639;28;20047;-82
2023/03/06 06:51:15;;;;;;;8.15;5.10;;;;;;;6.13;100.00;97905.91;4980133;28;20388;-84
2023/03/06 06:53:40;;;;;;;9.57;4.60;;;;;;;6.27;100.00;97912.78;4983530;28;20046;-84
2023/03/06 06:56:06;;;;;;;5.75;3.88;;;;;;;6.18;100.00;97890.47;4961538;28;20054;-82
2023/03/06 06:58:31;;;;;;;9.77;5.20;;;;;;;6.04;100.00;97883.63;4978507;28;20500;-85
2023/03/06 07:01:04;;;;;;;7.93;4.65;;;;;;;6.29;100.00;97895.16;4961137;28;20109;-81
2023/03/06 07:03:29;;;;;;;7.47;4.93;;;;;;;6.26;100.00;97894.72;4978177;28;20098;-82
2023/03/06 07:05:55;;;;;;;7.53;5.22;;;;;;;6.19;100.00;97888.69;4960457;28;20042;-82
2023/03/06 07:08:21;;;;;;;6.72;4.30;;;;;;;6.16;100.00;97889.09;4977216;28;20046;-84
2023/03/06 07:10:46;;;;;;;10.20;4.70;;;;;;;6.24;100.00;97894.94;4979856;28;20054;-86
2023/03/06 07:13:12;;;;;;;7.85;4.20;;;;;;;6.21;100.00;97868.47;4978634;28;20026;-80
2023/03/06 07:15:37;;;;;;;5.63;3.65;;;;;;;5.87;100.00;97876.09;4977356;28;20043;-84
2023/03/06 07:18:03;;;;;;;5.47;3.42;;;;;;;6.29;100.00;97876.13;4975742;28;20078;-82
2023/03/06 07:20:30;;;;;;;5.80;3.20;;;;;;;6.24;100.00;97883.69;4976286;28;20093;-83
2023/03/06 07:22:56;;;;;;;5.38;3.05;;;;;;;6.28;100.00;97884.91;4959944;28;20074;-82
2023/03/06 07:25:22;;;;;;;5.07;3.40;;;;;;;6.33;100.00;97877.34;4976741;28;20046;-84
2023/03/06 07:27:53;;;;;;;5.45;2.95;;;;;;;6.19;100.00;97876.47;4976760;28;20106;-85
2023/03/06 07:30:20;;;;;;;7.10;3.10;;;;;;;6.40;100.00;97872.94;4977024;28;20039;-83
2023/03/06 07:32:45;;;;;;;4.85;3.00;;;;;;;6.47;100.00;97879.97;4980441;28;20049;-82
2023/03/06 07:35:19;;;;;;;6.60;3.47;;;;;;;6.39;100.00;97860.91;4976062;28;20056;-84
2023/03/06 07:37:45;;;;;;;9.68;3.33;;;;;;;6.26;100.00;97853.03;4981341;28;20043;-85
2023/03/06 07:40:11;;;;;;;6.25;3.40;;;;;;;6.07;100.00;97841.56;4984926;28;20070;-86
2023/03/06 07:42:40;;;;;;;6.60;2.97;;;;;;;5.84;100.00;97827.81;4973841;28;20071;-86
2023/03/06 07:45:07;;;;;;;5.53;3.47;;;;;;;6.19;100.00;97841.78;4975873;28;20031;-86
2023/03/06 07:47:33;;;;;;;4.97;2.45;;;;;;;6.06;100.00;97856.38;4969525;28;20043;-86
2023/03/06 07:50:02;;;;;;;3.75;2.30;;;;;;;6.11;100.00;97846.19;4977548;28;20102;-86
2023/03/06 07:52:30;;;;;;;5.65;2.92;;;;;;;6.38;100.00;97850.66;4960741;28;20047;-86
2023/03/06 07:54:56;;;;;;;7.72;2.95;;;;;;;6.08;100.00;97838.75;4954631;29;20043;-85
2023/03/06 07:57:21;;;;;;;5.60;2.83;;;;;;;6.13;100.00;97840.78;4941109;29;20051;-86
2023/03/06 07:59:47;;;;;;;8.68;3.03;;;;;;;6.12;100.00;97860.00;4958352;29;20533;-86
2023/03/06 08:02:12;;;;;;;7.10;3.30;;;;;;;6.28;100.00;97848.44;4956705;29;20450;-86
2023/03/06 08:04:38;;;;;;;8.07;3.40;;;;;;;6.42;100.00;97842.25;4958043;29;20039;-88
2023/03/06 08:07:04;;;;;;;6.65;4.28;;;;;;;6.48;100.00;97842.47;4960629;29;20069;-86
2023/03/06 08:09:33;;;;;;;10.55;3.88;;;;;;;6.42;100.00;97855.28;4958628;29;20071;-87
2023/03/06 08:12:01;;;;;;;6.05;3.88;;;;;;;6.20;100.00;97851.22;4942037;29;20049;-84
2023/03/06 08:14:26;;;;;;;6.40;4.18;;;;;;;6.65;100.00;97838.47;4961268;29;20050;-89
2023/03/06 08:16:55;;;;;;;7.95;3.72;;;;;;;6.63;100.00;97835.28;4941836;29;20047;-84
2023/03/06 08:19:21;;;;;;;6.00;4.13;;;;;;;6.83;100.00;97816.22;4956842;29;20062;-85
2023/03/06 08:21:47;;;;;;;8.70;3.67;;;;;;;6.80;100.00;97824.47;4960156;29;20457;-85
2023/03/06 08:24:15;;;;;;;4.55;3.03;;;;;;;6.57;100.00;97823.03;4958742;29;20106;-86
2023/03/06 08:26:44;;;;;;;5.15;3.58;;;;;;;6.57;100.00;97828.25;4941863;29;20051;-85
2023/03/06 08:29:09;;;;;;;4.55;3.22;;;;;;;6.95;100.00;97822.47;4940423;29;20035;-84
2023/03/06 08:31:40;;;;;;;4.53;2.60;;;;;;;6.76;100.00;97846.72;4940550;29;20051;-83
2023/03/06 08:34:12;;;;;;;4.53;2.50;;;;;;;6.79;100.00;97849.75;4937587;28;20394;-83
2023/03/06 08:36:37;;;;;;;4.88;2.85;;;;;;;6.71;100.00;97829.88;4955449;29;20039;-87
2023/03/06 08:39:03;;;;;;;3.13;2.65;;;;;;;6.94;100.00;97836.50;4938436;29;20069;-85
2023/03/06 08:41:29;;;;;;;4.93;3.30;;;;;;;6.85;100.00;97845.53;4955280;29;20102;-86
2023/03/06 08:43:55;;;;;;;5.03;3.22;;;;;;;7.21;100.00;97828.66;4937709;29;20067;-87
2023/03/06 08:46:23;;;;;;;6.72;3.10;;;;;;;6.74;100.00;97840.91;4957355;28;20445;-86
2023/03/06 08:48:49;;;;;;;8.13;3.47;;;;;;;7.05;100.00;97836.91;4942771;29;20050;-84
2023/03/06 08:51:15;;;;;;;4.45;3.10;;;;;;;7.24;100.00;97825.66;4943136;29;20051;-86
2023/03/06 08:53:40;;;;;;;5.15;3.10;;;;;;;7.03;100.00;97831.91;4947544;29;20051;-84
2023/03/06 08:56:22;;;;;;;5.53;3.17;;;;;;;7.24;100.00;97819.63;4974729;28;20414;-86
2023/03/06 08:58:48;;;;;;;4.22;2.67;;;;;;;7.57;100.00;97824.78;4961784;28;20125;-85
2023/03/06 09:01:16;;;;;;;6.30;3.40;;;;;;;7.60;100.00;97812.31;4960684;28;20070;-86
2023/03/06 09:03:41;;;;;;;4.70;3.13;;;;;;;7.63;100.00;97811.91;4972113;28;20131;-84
2023/03/06 09:06:07;;;;;;;3.28;2.40;;;;;;;7.13;100.00;97815.84;4960338;28;20054;-85
2023/03/06 09:08:33;;;;;;;5.13;3.30;;;;;;;7.49;100.00;97811.16;4979152;28;20090;-85
2023/03/06 09:10:58;;;;;;;7.88;3.58;;;;;;;7.43;100.00;97816.19;4962686;28;20031;-85
2023/03/06 09:13:33;;;;;;;6.60;3.55;;;;;;;7.67;100.00;97794.84;4979287;28;20039;-87
2023/03/06 09:16:02;;;;;;;7.45;3.88;;;;;;;7.84;100.00;97793.34;4963654;28;20042;-83
2023/03/06 09:18:31;;;;;;;6.07;3.28;;;;;;;7.55;100.00;97786.81;4961863;28;20050;-85
2023/03/06 09:20:56;;;;;;;5.93;3.00;;;;;;;7.54;100.00;97783.44;4962288;28;20039;-84
2023/03/06 09:23:22;;;;;;;5.47;2.88;;;;;;;7.57;100.00;97801.28;4960730;28;20058;-85
2023/03/06 09:25:53;;;;;;;3.47;2.63;;;;;;;7.95;100.00;97780.66;4963828;28;20043;-84
2023/03/06 09:28:18;;;;;;;6.32;2.70;;;;;;;7.78;100.00;97778.50;4982595;28;20425;-85
2023/03/06 09:30:44;;;;;;;5.53;2.95;;;;;;;8.16;100.00;97787.41;4978073;28;20089;-83
2023/03/06 09:33:09;;;;;;;6.38;3.03;;;;;;;8.64;100.00;97775.63;4960872;28;20489;-84
2023/03/06 09:35:49;;;;;;;2.80;2.50;;;;;;;9.23;100.00;97771.91;4978166;28;20086;-85
2023/03/06 09:38:15;;;;;;;4.00;2.90;;;;;;;8.18;100.00;97766.25;4977789;28;20042;-84
2023/03/06 09:40:51;;;;;;;5.10;3.47;;;;;;;8.40;100.00;97764.91;4960288;28;20097;-83
2023/03/06 09:43:24;;;;;;;6.95;3.55;;;;;;;7.78;100.00;97772.50;4977997;28;20366;-84
2023/03/06 09:45:49;;;;;;;9.32;3.90;;;;;;;8.18;100.00;97772.31;4978821;28;20040;-83
2023/03/06 09:48:16;;;;;;;8.15;4.22;;;;;;;8.13;100.00;97780.75;4977497;28;20064;-83
2023/03/06 09:50:53;;;;;;;4.65;3.67;;;;;;;7.64;100.00;97763.88;4960272;28;20497;-85
2023/03/06 09:53:37;;;;;;;5.07;3.42;;;;;;;7.69;100.00;97762.28;4975550;28;20525;-84
2023/03/06 09:56:12;;;;;;;4.30;3.00;;;;;;;7.76;100.00;97753.59;4975049;28;20531;-82
2023/03/06 09:58:46;;;;;;;5.65;3.03;;;;;;;7.90;100.00;97760.38;4959652;28;20078;-85
2023/03/06 10:01:23;;;;;;;3.65;3.08;;;;;;;7.74;100.00;97779.94;4958945;28;20074;-83
2023/03/06 10:04:07;;;;;;;4.95;3.03;;;;;;;7.60;100.00;97771.34;4960159;28;20441;-83
2023/03/06 10:06:40;;;;;;;2.58;2.05;;;;;;;7.38;100.00;97769.03;4977550;28;20050;-84
2023/03/06 10:09:14;;;;;;;3.35;2.67;;;;;;;7.58;100.00;97766.31;4961098;28;20070;-85
2023/03/06 10:11:50;;;;;;;4.85;3.67;;;;;;;7.53;100.00;97763.53;4981323;28;20113;-85
2023/03/06 10:14:27;;;;;;;3.33;2.60;;;;;;;7.56;100.00;97755.28;4964423;28;20126;-86
2023/03/06 10:16:55;;;;;;;5.60;2.83;;;;;;;7.70;100.00;97778.75;4978148;28;20098;-86
2023/03/06 10:19:22;;;;;;;4.47;2.95;;;;;;;7.33;100.00;97768.03;4977315;28;20039;-87
2023/03/06 10:21:58;;;;;;;7.18;3.42;;;;;;;7.23;100.00;97765.84;4962792;28;20363;-83
2023/03/06 10:24:41;;;;;;;8.27;6.25;;;;;;;7.68;100.00;97767.72;4979648;28;20043;-81
2023/03/06 10:27:10;;;;;;;;;;;;;;;7.49;100.00;97770.19;4962846;28;20117;-83
2023/03/06 10:29:59;;;;;;;8.82;4.30;;;;;;;7.57;100.00;97762.13;4976364;28;19965;-86
2023/03/06 10:32:49;;;;;;;5.53;4.22;;;;;;;7.97;100.00;97757.72;4976934;28;20051;-86
2023/03/06 10:35:20;;;;;;;8.80;3.97;;;;;;;7.70;100.00;97755.25;4976347;28;20093;-84
2023/03/06 10:37:46;;;;;;;3.72;3.03;;;;;;;7.80;100.00;97750.38;4977962;28;20114;-84
2023/03/06 10:40:23;;;;;;;5.53;3.92;;;;;;;7.94;100.00;97766.00;4976739;28;20039;-87
2023/03/06 10:42:49;;;;;;;3.30;2.88;;;;;;;7.70;100.00;97750.03;4959596;28;20074;-84
2023/03/06 10:45:16;;;;;;;4.20;3.42;;;;;;;7.82;100.00;97753.56;4959869;28;20038;-86
2023/03/06 10:47:43;;;;;;;5.63;3.15;;;;;;;8.06;100.00;97759.09;4976557;28;20046;-84
2023/03/06 10:50:29;;;;;;;36.58;14.25;;;;;;;8.69;100.00;97746.22;4977115;28;20039;-84
2023/03/06 10:53:09;;;;;;;4.75;2.65;;;;;;;8.39;100.00;97755.47;4978675;28;20500;-84
2023/03/06 10:55:36;;;;;;;4.05;3.30;;;;;;;8.62;100.00;97741.03;4980934;28;20055;-84
2023/03/06 10:58:27;;;;;;;3.60;2.67;;;;;;;8.64;100.00;97744.22;4983963;28;20038;-86
2023/03/06 11:01:01;;;;;;;6.95;2.50;;;;;;;8.44;100.00;97758.22;4976101;28;20045;-85
2023/03/06 11:03:52;;;;;;;2.15;1.83;;;;;;;7.28;100.00;97763.41;4966281;28;20054;-86
2023/03/06 11:06:36;;;;;;;1.73;1.48;;;;;;;6.92;100.00;97762.06;4961187;28;20046;-86
2023/03/06 11:09:23;;;;;;;2.95;1.65;;;;;;;7.02;100.00;97752.03;4977969;28;20089;-86
2023/03/06 11:11:49;;;;;;;1.33;1.20;;;;;;;5.97;100.00;97750.72;4977759;28;20050;-87
2023/03/06 11:14:23;;;;;;;2.50;1.15;;;;;;;5.94;100.00;97756.34;4977847;28;20042;-86
2023/03/06 11:16:52;;;;;;;1.88;1.00;;;;;;;5.70;100.00;97753.25;4979102;28;20070;-86
2023/03/06 11:19:26;;;;;;;2.20;1.00;;;;;;;6.20;100.00;97742.59;4978943;28;20042;-85
2023/03/06 11:22:16;;;;;;;1.17;0.80;;;;;;;6.26;100.00;97735.75;4960319;28;20133;-84
2023/03/06 11:24:46;;;;;;;0.80;0.80;;;;;;;6.48;100.00;97732.97;4978363;28;20118;-84
2023/03/06 11:27:33;;;;;;;1.02;0.80;;;;;;;6.42;100.00;97732.78;4961584;28;20043;-86
2023/03/06 11:30:02;;;;;;;1.88;1.13;;;;;;;6.29;100.00;97732.78;4977653;28;20042;-84
2023/03/06 11:32:32;;;;;;;1.58;0.80;;;;;;;6.57;100.00;97722.16;4960575;28;20051;-85